Time;durP1;ratioP1;P1;durP2;ratioP2;P2;SDS_P1;SDS_P2;PMS_P1;PMS_P2;Temp;Humidity;BMP_temperature;BMP_pressure;BME280_temperature;BME280_humidity;BME280_pressure;Samples;Min_cycle;Max_cycle;Signal;HPM_P1;HPM_P2
2023/06/11 00:00:43;;;;;;;6.47;5.70;;;22.10;99.90;;;;;;5093243;28;20189;-48
2023/06/11 00:03:09;;;;;;;6.68;6.07;;;22.20;99.90;;;;;;5093323;28;20162;-48
2023/06/11 00:05:35;;;;;;;7.00;5.97;;;;;;;;;;5092910;28;20629;-48
2023/06/11 00:08:01;;;;;;;8.38;6.20;;;21.90;99.90;;;;;;5092769;28;20753;-48
2023/06/11 00:10:27;;;;;;;6.85;5.82;;;22.30;99.90;;;;;;5092593;28;20168;-48
2023/06/11 00:12:53;;;;;;;7.20;5.60;;;22.00;99.90;;;;;;5092852;28;20169;-48
2023/06/11 00:15:19;;;;;;;10.82;6.38;;;22.00;99.90;;;;;;5092699;28;20168;-48
2023/06/11 00:17:45;;;;;;;7.95;6.00;;;22.10;99.90;;;;;;5092646;28;20169;-48
2023/06/11 00:20:11;;;;;;;6.93;6.13;;;22.20;99.90;;;;;;5093083;28;20205;-48
2023/06/11 00:22:41;;;;;;;9.05;6.22;;;22.20;99.90;;;;;;5092941;28;20525;-49
2023/06/11 00:25:08;;;;;;;8.63;5.35;;;22.50;99.90;;;;;;5092427;28;20196;-48
2023/06/11 00:27:35;;;;;;;6.90;5.95;;;22.30;99.90;;;;;;5092688;28;20250;-48
2023/06/11 00:30:04;;;;;;;7.35;6.10;;;22.40;99.90;;;;;;5092353;28;20197;-48
2023/06/11 00:32:33;;;;;;;6.53;5.90;;;22.20;99.90;;;;;;5091815;28;20161;-48
2023/06/11 00:34:59;;;;;;;7.05;6.13;;;22.30;99.90;;;;;;5092430;28;20193;-48
2023/06/11 00:37:25;;;;;;;7.97;6.35;;;22.40;99.90;;;;;;5092240;28;20173;-48
2023/06/11 00:39:51;;;;;;;7.32;6.18;;;22.40;99.90;;;;;;5092075;28;20610;-48
2023/06/11 00:42:19;;;;;;;6.65;5.95;;;22.20;99.90;;;;;;5092134;28;20161;-48
2023/06/11 00:44:46;;;;;;;9.27;5.80;;;22.30;99.90;;;;;;5092321;28;20181;-48
2023/06/11 00:47:14;;;;;;;7.10;6.38;;;22.40;99.90;;;;;;5092159;28;20207;-48
2023/06/11 00:49:40;;;;;;;9.10;6.60;;;22.40;99.90;;;;;;5092643;28;20526;-48
2023/06/11 00:52:09;;;;;;;7.07;6.35;;;22.50;99.90;;;;;;5092046;28;20219;-48
2023/06/11 00:54:35;;;;;;;10.27;6.20;;;;;;;;;;5092180;28;20253;-48
2023/06/11 00:57:01;;;;;;;8.45;6.10;;;22.30;99.90;;;;;;5092237;28;20193;-48
2023/06/11 00:59:27;;;;;;;6.93;6.22;;;22.40;99.90;;;;;;5092101;28;20288;-48
2023/06/11 01:02:09;;;;;;;8.95;6.13;;;22.10;99.90;;;;;;5092161;28;20260;-48
2023/06/11 01:04:39;;;;;;;7.45;6.18;;;22.30;99.90;;;;;;5091804;28;20176;-48
2023/06/11 01:07:07;;;;;;;10.75;6.63;;;22.40;99.90;;;;;;5091662;28;20212;-49
2023/06/11 01:09:33;;;;;;;6.90;5.82;;;22.20;99.90;;;;;;5073625;28;20209;-48
2023/06/11 01:12:02;;;;;;;7.93;6.50;;;22.20;99.90;;;;;;5091724;28;20200;-48
2023/06/11 01:14:28;;;;;;;7.18;5.95;;;22.20;99.90;;;;;;5091732;28;20533;-48
2023/06/11 01:17:04;;;;;;;6.97;6.28;;;22.20;99.90;;;;;;5073680;28;20161;-48
2023/06/11 01:19:33;;;;;;;11.85;6.47;;;22.20;99.90;;;;;;5091567;28;20197;-48
2023/06/11 01:22:08;;;;;;;6.50;5.90;;;22.00;99.90;;;;;;5091911;28;20169;-48
2023/06/11 01:25:25;;;;;;;8.43;7.03;;;22.10;99.90;;;;;;5091822;28;20207;-48
2023/06/11 01:28:07;;;;;;;7.25;6.18;;;22.20;99.90;;;;;;5036361;28;20185;-48
2023/06/11 01:30:37;;;;;;;10.50;6.60;;;22.50;99.90;;;;;;5091527;28;20658;-48
2023/06/11 01:33:03;;;;;;;8.93;5.82;;;22.20;99.90;;;;;;5091775;28;20165;-48
2023/06/11 01:35:29;;;;;;;6.75;6.05;;;22.10;99.90;;;;;;5091479;28;20161;-48
2023/06/11 01:37:55;;;;;;;6.70;6.10;;;22.10;99.90;;;;;;5091757;28;20166;-48
2023/06/11 01:40:26;;;;;;;7.60;6.72;;;22.10;99.90;;;;;;5091539;28;20209;-48
2023/06/11 01:42:52;;;;;;;8.57;6.53;;;22.00;99.90;;;;;;5091721;28;20169;-48
2023/06/11 01:45:18;;;;;;;6.88;6.28;;;22.20;99.90;;;;;;5095295;28;20165;-48
2023/06/11 01:47:48;;;;;;;7.85;6.25;;;22.40;99.90;;;;;;5095445;28;20278;-48
2023/06/11 01:50:15;;;;;;;8.95;6.07;;;21.90;99.90;;;;;;5095399;28;20237;-48
2023/06/11 01:52:41;;;;;;;6.65;5.93;;;;;;;;;;5095494;28;20169;-48
2023/06/11 01:55:08;;;;;;;7.18;6.30;;;21.90;99.90;;;;;;5095813;28;20540;-48
2023/06/11 01:57:34;;;;;;;9.52;6.75;;;21.60;99.90;;;;;;5095329;28;20180;-48
2023/06/11 02:00:00;;;;;;;6.38;5.78;;;21.90;99.90;;;;;;5095229;28;20217;-49
2023/06/11 02:02:31;;;;;;;7.28;6.07;;;21.90;99.90;;;;;;5095437;28;20169;-48
2023/06/11 02:04:57;;;;;;;11.55;6.70;;;21.80;99.90;;;;;;5095502;28;20226;-48
2023/06/11 02:07:22;;;;;;;6.82;6.00;;;21.50;99.90;;;;;;5095054;28;20201;-48
2023/06/11 02:09:48;;;;;;;10.43;6.70;;;22.20;99.90;;;;;;5095175;28;20157;-48
2023/06/11 02:12:14;;;;;;;7.47;6.50;;;21.50;99.90;;;;;;5095039;28;20230;-48
2023/06/11 02:14:39;;;;;;;11.15;6.90;;;21.80;99.90;;;;;;5095501;28;20219;-49
2023/06/11 02:17:05;;;;;;;14.65;8.55;;;21.80;99.90;;;;;;5095072;28;20260;-48
2023/06/11 02:19:31;;;;;;;9.43;7.03;;;21.60;99.90;;;;;;5094826;28;20204;-48
2023/06/11 02:21:56;;;;;;;12.30;7.15;;;21.80;99.90;;;;;;5094899;28;20162;-48
2023/06/11 02:24:22;;;;;;;9.50;6.13;;;22.20;99.90;;;;;;5094855;28;20174;-48
2023/06/11 02:26:47;;;;;;;6.95;6.05;;;21.70;99.90;;;;;;5094840;28;20206;-48
2023/06/11 02:29:13;;;;;;;7.32;6.63;;;21.60;99.90;;;;;;5094714;28;20261;-48
2023/06/11 02:31:38;;;;;;;7.72;6.82;;;21.50;99.90;;;;;;5095098;28;20236;-48
2023/06/11 02:34:04;;;;;;;10.60;7.82;;;21.70;99.90;;;;;;5094585;28;20196;-48
2023/06/11 02:36:30;;;;;;;7.50;6.50;;;21.60;99.90;;;;;;5094794;28;20596;-48
2023/06/11 02:38:55;;;;;;;10.23;6.10;;;21.60;99.90;;;;;;5094477;28;20200;-48
2023/06/11 02:41:21;;;;;;;8.07;6.60;;;21.60;99.90;;;;;;5094500;28;20184;-48
2023/06/11 02:43:46;;;;;;;10.00;6.93;;;21.50;99.90;;;;;;5094506;28;20185;-48
2023/06/11 02:46:12;;;;;;;9.95;7.05;;;21.60;99.90;;;;;;5094352;28;20163;-48
2023/06/11 02:48:37;;;;;;;10.45;6.32;;;21.70;99.90;;;;;;5094830;28;20161;-48
2023/06/11 02:51:03;;;;;;;8.15;6.60;;;21.80;99.90;;;;;;5094257;28;20173;-48
2023/06/11 02:53:28;;;;;;;7.47;6.70;;;21.40;99.90;;;;;;5094376;28;20260;-48
2023/06/11 02:55:54;;;;;;;9.88;6.35;;;;;;;;;;5093395;28;20196;-48
2023/06/11 02:58:20;;;;;;;14.27;9.30;;;21.40;99.90;;;;;;5094181;28;20169;-48
2023/06/11 03:00:45;;;;;;;8.13;6.70;;;21.30;99.90;;;;;;5094241;28;20195;-48
2023/06/11 03:03:11;;;;;;;10.90;8.77;;;21.50;99.90;;;;;;5094019;28;20257;-48
2023/06/11 03:05:37;;;;;;;7.68;6.65;;;21.30;99.90;;;;;;5082636;28;20605;-51
2023/06/11 03:08:02;;;;;;;10.23;7.40;;;21.20;99.90;;;;;;5073503;28;20669;-48
2023/06/11 03:10:28;;;;;;;12.60;8.65;;;21.10;99.90;;;;;;5073661;28;20626;-48
2023/06/11 03:12:56;;;;;;;8.63;7.60;;;21.10;99.90;;;;;;5073776;28;20174;-47
2023/06/11 03:15:22;;;;;;;13.13;7.95;;;21.50;99.90;;;;;;5073315;28;20216;-48
2023/06/11 03:17:47;;;;;;;8.38;7.47;;;21.30;99.90;;;;;;5073607;28;20174;-47
2023/06/11 03:20:13;;;;;;;8.10;6.35;;;20.90;99.90;;;;;;5073504;28;20661;-47
2023/06/11 03:22:39;;;;;;;7.85;6.47;;;20.90;99.90;;;;;;5074186;28;20174;-47
2023/06/11 03:25:05;;;;;;;14.88;7.20;;;20.80;99.90;;;;;;5073425;28;20556;-48
2023/06/11 03:27:30;;;;;;;9.13;6.32;;;20.80;99.90;;;;;;5073387;28;20215;-48
2023/06/11 03:29:56;;;;;;;7.95;6.72;;;21.10;99.90;;;;;;5073336;28;20241;-48
2023/06/11 03:32:22;;;;;;;19.90;12.55;;;21.10;99.90;;;;;;5073287;28;20166;-48
2023/06/11 03:34:50;;;;;;;10.43;8.27;;;21.10;99.90;;;;;;5073308;28;20173;-48
2023/06/11 03:37:16;;;;;;;12.23;8.65;;;20.80;99.90;;;;;;5073195;28;20163;-48
2023/06/11 03:39:43;;;;;;;8.88;7.75;;;21.40;99.90;;;;;;5073083;28;20720;-48
2023/06/11 03:42:08;;;;;;;11.80;7.38;;;21.00;99.90;;;;;;5073403;28;20192;-49
2023/06/11 03:44:34;;;;;;;13.00;9.50;;;21.00;99.90;;;;;;5073281;28;20174;-48
2023/06/11 03:46:59;;;;;;;14.05;10.55;;;21.50;99.90;;;;;;5072680;28;20190;-48
2023/06/11 03:49:25;;;;;;;8.95;7.75;;;20.90;99.90;;;;;;5072872;28;20170;-48
2023/06/11 03:51:51;;;;;;;23.20;15.07;;;21.10;99.90;;;;;;5072934;28;20174;-49
2023/06/11 03:54:16;;;;;;;8.85;7.30;;;21.00;99.90;;;;;;5072715;28;20237;-48
2023/06/11 03:56:42;;;;;;;11.38;9.48;;;21.30;99.90;;;;;;5072872;28;20531;-48
2023/06/11 03:59:07;;;;;;;12.65;8.05;;;20.90;99.90;;;;;;5073101;28;20606;-48
2023/06/11 04:01:33;;;;;;;12.48;10.48;;;20.70;99.90;;;;;;5072664;28;20584;-48
2023/06/11 04:03:58;;;;;;;11.13;7.63;;;21.00;99.90;;;;;;5072609;28;20601;-48
2023/06/11 04:06:24;;;;;;;27.38;17.35;;;21.10;99.90;;;;;;5072494;28;20174;-48
2023/06/11 04:08:50;;;;;;;23.10;11.65;;;21.10;99.90;;;;;;5072409;28;20245;-48
2023/06/11 04:11:15;;;;;;;14.57;9.77;;;21.00;99.90;;;;;;5072600;28;20249;-48
2023/06/11 04:13:41;;;;;;;11.93;9.55;;;;;;;;;;5072484;28;20207;-48
2023/06/11 04:16:07;;;;;;;12.73;9.45;;;21.20;99.90;;;;;;5072870;28;20180;-48
2023/06/11 04:18:32;;;;;;;11.85;8.85;;;21.10;99.90;;;;;;5072489;28;20260;-48
2023/06/11 04:20:58;;;;;;;13.30;8.70;;;21.30;99.90;;;;;;5072537;28;20174;-48
2023/06/11 04:23:23;;;;;;;9.98;6.82;;;21.20;99.90;;;;;;5072269;28;20510;-48
2023/06/11 04:25:49;;;;;;;10.98;8.43;;;21.30;99.90;;;;;;5072142;28;20621;-48
2023/06/11 04:28:15;;;;;;;10.88;8.30;;;20.90;99.90;;;;;;5054197;28;20168;-48
2023/06/11 04:30:41;;;;;;;8.95;7.40;;;20.90;99.90;;;;;;5072073;28;20660;-48
2023/06/11 04:33:07;;;;;;;12.48;7.97;;;21.50;99.90;;;;;;5072486;28;20210;-48
2023/06/11 04:35:34;;;;;;;8.77;7.35;;;21.60;99.90;;;;;;5071968;28;20241;-48
2023/06/11 04:38:04;;;;;;;10.05;7.20;;;22.00;99.90;;;;;;5072263;28;20219;-48
2023/06/11 04:40:30;;;;;;;13.98;8.38;;;21.90;99.90;;;;;;5071866;28;20896;-47
2023/06/11 04:42:57;;;;;;;13.32;8.25;;;21.90;99.90;;;;;;5071832;28;20209;-48
2023/06/11 04:45:23;;;;;;;10.30;6.65;;;22.00;99.90;;;;;;5072073;28;20162;-48
2023/06/11 04:47:50;;;;;;;7.03;6.22;;;22.30;99.90;;;;;;5071898;28;20162;-50
2023/06/11 04:50:20;;;;;;;11.88;8.30;;;22.30;99.90;;;;;;5072026;28;20180;-50
2023/06/11 04:52:48;;;;;;;9.68;6.75;;;22.30;99.90;;;;;;5053768;28;20223;-48
2023/06/11 04:55:16;;;;;;;7.30;6.32;;;22.30;99.90;;;;;;5071768;28;20166;-48
2023/06/11 04:57:41;;;;;;;6.68;6.03;;;22.20;99.90;;;;;;5072022;28;20541;-48
2023/06/11 05:00:08;;;;;;;12.98;8.85;;;22.30;99.90;;;;;;5072019;28;20201;-48
2023/06/11 05:02:37;;;;;;;7.93;6.50;;;22.50;99.90;;;;;;5071868;28;20306;-48
2023/06/11 05:05:06;;;;;;;11.13;7.22;;;22.40;99.90;;;;;;5071613;28;20173;-47
2023/06/11 05:07:33;;;;;;;12.32;7.68;;;22.40;99.90;;;;;;5071396;28;20301;-47
2023/06/11 05:09:59;;;;;;;8.85;6.57;;;22.60;99.90;;;;;;5071650;28;20158;-47
2023/06/11 05:12:24;;;;;;;9.20;8.10;;;22.70;99.90;;;;;;5071779;28;20527;-48
2023/06/11 05:14:50;;;;;;;11.55;7.25;;;22.70;99.90;;;;;;5071541;28;20166;-48
2023/06/11 05:17:16;;;;;;;17.05;12.15;;;22.80;99.90;;;;;;5071513;28;20169;-48
2023/06/11 05:19:43;;;;;;;14.52;9.27;;;23.10;99.90;;;;;;5071235;28;20208;-48
2023/06/11 05:22:08;;;;;;;13.77;8.63;;;23.10;99.90;;;;;;5071860;28;20154;-48
2023/06/11 05:24:34;;;;;;;12.02;6.18;;;23.20;99.90;;;;;;5071465;28;20212;-47
2023/06/11 05:27:00;;;;;;;12.30;9.38;;;23.20;99.90;;;;;;5071509;28;20166;-49
2023/06/11 05:29:26;;;;;;;9.27;6.70;;;23.20;99.90;;;;;;5071652;28;20197;-48
2023/06/11 05:31:51;;;;;;;11.93;10.25;;;23.10;99.90;;;;;;5071423;28;20621;-48
2023/06/11 05:34:18;;;;;;;8.43;7.63;;;23.30;99.90;;;;;;5071644;28;20169;-47
2023/06/11 05:36:45;;;;;;;8.00;7.07;;;23.40;99.90;;;;;;5071402;28;20170;-49
2023/06/11 05:39:12;;;;;;;12.45;8.05;;;23.20;99.90;;;;;;5053829;28;20209;-48
2023/06/11 05:41:38;;;;;;;9.43;6.68;;;23.50;99.90;;;;;;5072067;28;20573;-48
2023/06/11 05:44:04;;;;;;;14.23;8.98;;;23.70;99.90;;;;;;5071520;28;20231;-48
2023/06/11 05:46:29;;;;;;;11.55;8.48;;;23.70;99.90;;;;;;5080583;28;20169;-50
2023/06/11 05:48:55;;;;;;;7.97;7.18;;;23.70;99.90;;;;;;5089610;28;20631;-48
2023/06/11 05:51:20;;;;;;;7.25;6.30;;;23.80;99.90;;;;;;5089556;28;20307;-48
2023/06/11 05:53:46;;;;;;;10.48;7.32;;;23.70;99.90;;;;;;5089549;28;20167;-48
2023/06/11 05:56:12;;;;;;;15.60;10.75;;;23.70;99.90;;;;;;5089513;28;20633;-49
2023/06/11 05:58:38;;;;;;;16.50;11.10;;;;;;;;;;5089951;28;20236;-48
2023/06/11 06:01:04;;;;;;;8.77;7.00;;;23.60;99.90;;;;;;5089534;28;20169;-48
2023/06/11 06:03:31;;;;;;;10.05;7.63;;;23.90;99.90;;;;;;5089394;28;20166;-48
2023/06/11 06:06:01;;;;;;;9.43;6.72;;;23.60;99.90;;;;;;5089091;28;20165;-48
2023/06/11 06:08:30;;;;;;;7.05;6.25;;;24.10;99.90;;;;;;5089164;28;20219;-48
2023/06/11 06:10:56;;;;;;;8.57;6.88;;;24.20;99.90;;;;;;5089325;28;20172;-48
2023/06/11 06:13:24;;;;;;;9.38;6.68;;;24.10;99.90;;;;;;5089468;28;20513;-48
2023/06/11 06:15:50;;;;;;;12.10;8.43;;;;;;;;;;5089585;28;20169;-48
2023/06/11 06:18:16;;;;;;;6.70;6.03;;;24.20;99.90;;;;;;5089513;28;20181;-48
2023/06/11 06:20:42;;;;;;;8.43;6.15;;;24.20;99.90;;;;;;5083027;28;20209;-48
2023/06/11 06:23:08;;;;;;;7.00;5.97;;;;;;;;;;5069021;28;20158;-48
2023/06/11 06:25:37;;;;;;;6.82;6.15;;;24.10;99.90;;;;;;5069124;28;20285;-48
2023/06/11 06:28:03;;;;;;;7.07;6.47;;;24.10;99.90;;;;;;5069284;28;20174;-48
2023/06/11 06:30:30;;;;;;;11.60;6.25;;;24.40;99.90;;;;;;5069834;28;20189;-47
2023/06/11 06:32:56;;;;;;;7.97;6.20;;;24.40;99.90;;;;;;5072504;28;20169;-47
2023/06/11 06:35:21;;;;;;;6.03;5.05;;;24.60;99.90;;;;;;5072486;28;20531;-48
2023/06/11 06:37:47;;;;;;;8.15;5.90;;;24.80;99.90;;;;;;5072576;28;20570;-48
2023/06/11 06:40:13;;;;;;;6.82;6.10;;;24.50;99.90;;;;;;5072060;28;20218;-48
2023/06/11 06:42:39;;;;;;;6.40;5.80;;;;;;;;;;5072595;28;20177;-47
2023/06/11 06:45:05;;;;;;;7.63;5.70;;;24.60;99.90;;;;;;5072820;28;20215;-48
2023/06/11 06:47:31;;;;;;;8.20;6.40;;;24.50;99.90;;;;;;5072296;28;20176;-48
2023/06/11 06:49:56;;;;;;;8.02;6.10;;;24.50;99.90;;;;;;5071949;28;20165;-47
2023/06/11 06:52:22;;;;;;;6.30;5.75;;;;;;;;;;5072253;28;20169;-48
2023/06/11 06:54:50;;;;;;;6.05;5.35;;;25.10;99.90;;;;;;5072267;28;20173;-48
2023/06/11 06:57:15;;;;;;;8.75;5.50;;;24.80;99.90;;;;;;5072261;28;20249;-48
2023/06/11 06:59:41;;;;;;;6.65;5.93;;;24.80;99.90;;;;;;5072022;28;20732;-48
2023/06/11 07:02:06;;;;;;;9.00;6.18;;;25.00;99.90;;;;;;5072457;28;20272;-48
2023/06/11 07:04:32;;;;;;;8.52;6.35;;;25.00;99.90;;;;;;5071698;28;20241;-48
2023/06/11 07:06:58;;;;;;;5.63;5.22;;;25.10;99.90;;;;;;5071811;28;20169;-48
2023/06/11 07:09:24;;;;;;;9.00;5.90;;;24.90;99.90;;;;;;5071666;28;20533;-48
2023/06/11 07:11:52;;;;;;;6.40;5.80;;;24.90;99.90;;;;;;5072172;28;20182;-48
2023/06/11 07:14:18;;;;;;;5.85;5.35;;;;;;;;;;5072099;28;20170;-48
2023/06/11 07:16:44;;;;;;;7.10;6.40;;;;;;;;;;5053918;28;20257;-48
2023/06/11 07:19:10;;;;;;;7.15;5.53;;;;;;;;;;5071920;28;20243;-48
2023/06/11 07:21:36;;;;;;;8.05;5.45;;;25.30;99.90;;;;;;5072122;28;20183;-48
2023/06/11 07:24:04;;;;;;;6.18;5.63;;;25.50;99.90;;;;;;5071675;28;20202;-48
2023/06/11 07:26:36;;;;;;;6.93;6.32;;;25.60;99.90;;;;;;5071039;28;20219;-48
2023/06/11 07:29:02;;;;;;;6.20;5.60;;;25.70;99.90;;;;;;5071247;28;20163;-49
2023/06/11 07:31:28;;;;;;;6.63;6.07;;;25.60;99.90;;;;;;5070873;28;20162;-48
2023/06/11 07:33:54;;;;;;;7.82;6.30;;;;;;;;;;5071034;28;20166;-49
2023/06/11 07:36:20;;;;;;;6.70;5.95;;;;;;;;;;5071935;28;20205;-48
2023/06/11 07:38:46;;;;;;;8.10;6.05;;;;;;;;;;5071663;28;20166;-48
2023/06/11 07:41:15;;;;;;;6.18;5.57;;;;;;;;;;5071147;28;20185;-48
2023/06/11 07:43:41;;;;;;;8.63;5.80;;;26.00;99.90;;;;;;5071403;28;20170;-48
2023/06/11 07:46:06;;;;;;;7.32;5.72;;;26.10;99.90;;;;;;5071617;28;20253;-48
2023/06/11 07:48:32;;;;;;;7.35;5.63;;;26.20;99.90;;;;;;5071117;28;20172;-48
2023/06/11 07:50:57;;;;;;;6.85;5.40;;;26.30;99.90;;;;;;5070965;28;20529;-48
2023/06/11 07:53:24;;;;;;;10.70;6.07;;;26.70;99.90;;;;;;5053181;28;20176;-48
2023/06/11 07:55:55;;;;;;;6.18;5.57;;;;;;;;;;5071037;28;20169;-48
2023/06/11 07:58:21;;;;;;;6.75;6.10;;;26.60;99.90;;;;;;5071027;28;20174;-48
2023/06/11 08:00:47;;;;;;;7.03;5.85;;;;;;;;;;5070826;28;20676;-47
2023/06/11 08:03:13;;;;;;;9.48;6.18;;;;;;;;;;5070423;28;20171;-48
2023/06/11 08:05:39;;;;;;;6.53;5.85;;;26.10;99.90;;;;;;5071067;28;20177;-47
2023/06/11 08:08:05;;;;;;;7.40;5.40;;;26.30;99.90;;;;;;5071025;28;20220;-48
2023/06/11 08:10:32;;;;;;;7.28;5.45;;;26.60;99.90;;;;;;5071015;28;20173;-48
2023/06/11 08:12:57;;;;;;;6.30;5.70;;;26.60;99.90;;;;;;5070916;28;20169;-48
2023/06/11 08:15:23;;;;;;;5.82;5.32;;;26.70;99.90;;;;;;5070544;28;20188;-48
2023/06/11 08:17:49;;;;;;;8.73;6.22;;;26.70;99.90;;;;;;5070496;28;20158;-48
2023/06/11 08:20:16;;;;;;;7.70;6.07;;;;;;;;;;5070548;28;20236;-48
2023/06/11 08:22:42;;;;;;;6.57;5.93;;;27.00;99.90;;;;;;5070367;28;20252;-48
2023/06/11 08:25:09;;;;;;;7.05;5.85;;;26.80;99.90;;;;;;5071168;28;20256;-48
2023/06/11 08:27:35;;;;;;;7.97;5.97;;;27.40;99.90;;;;;;5070762;28;20268;-48
2023/06/11 08:30:02;;;;;;;8.57;6.18;;;;;;;;;;5070160;28;20536;-48
2023/06/11 08:32:28;;;;;;;6.32;5.50;;;;;;;;;;5052079;28;20189;-48
2023/06/11 08:34:54;;;;;;;7.72;5.43;;;;;;;;;;5070181;28;20209;-47
2023/06/11 08:37:19;;;;;;;6.07;5.43;;;27.70;99.90;;;;;;5069299;28;20165;-47
2023/06/11 08:39:45;;;;;;;6.40;5.78;;;27.80;99.90;;;;;;5070179;28;20252;-47
2023/06/11 08:42:11;;;;;;;5.70;5.22;;;27.70;99.90;;;;;;5069926;28;20167;-48
2023/06/11 08:44:37;;;;;;;8.70;5.82;;;27.80;99.90;;;;;;5070249;28;20169;-47
2023/06/11 08:47:04;;;;;;;6.30;4.78;;;;;;;;;;5069799;28;20200;-47
2023/06/11 08:49:31;;;;;;;6.13;4.90;;;27.70;99.90;;;;;;5069751;28;20250;-48
2023/06/11 08:52:03;;;;;;;5.05;4.57;;;27.60;99.90;;;;;;5069447;28;20633;-48
2023/06/11 08:54:28;;;;;;;6.13;5.32;;;27.70;99.90;;;;;;5069046;28;20192;-48
2023/06/11 08:56:54;;;;;;;5.40;4.75;;;27.80;99.90;;;;;;5069917;28;20219;-48
2023/06/11 08:59:20;;;;;;;9.15;5.10;;;27.90;99.90;;;;;;5069861;28;20197;-48
2023/06/11 09:01:50;;;;;;;5.95;5.35;;;28.00;99.90;;;;;;5069861;28;20173;-48
2023/06/11 09:04:17;;;;;;;5.15;4.65;;;28.10;99.90;;;;;;5069945;28;20176;-48
2023/06/11 09:06:58;;;;;;;7.50;4.68;;;28.20;99.90;;;;;;5069300;28;20220;-48
2023/06/11 09:09:24;;;;;;;7.32;4.75;;;;;;;;;;5069599;28;20211;-48
2023/06/11 09:11:51;;;;;;;6.78;4.85;;;28.30;99.90;;;;;;5069553;28;20173;-49
2023/06/11 09:14:16;;;;;;;5.75;5.03;;;28.50;99.90;;;;;;5069576;28;20191;-48
2023/06/11 09:16:46;;;;;;;5.18;4.75;;;28.10;99.90;;;;;;5069481;28;20652;-48
2023/06/11 09:19:17;;;;;;;5.82;5.22;;;28.50;99.90;;;;;;5069729;28;20577;-49
2023/06/11 09:21:54;;;;;;;5.80;5.30;;;28.60;99.90;;;;;;5069232;28;20262;-49
2023/06/11 09:24:25;;;;;;;5.05;4.63;;;29.20;99.90;;;;;;5069294;28;20161;-49
2023/06/11 09:26:56;;;;;;;5.95;5.15;;;28.90;99.90;;;;;;5069448;28;20162;-49
2023/06/11 09:29:23;;;;;;;5.07;4.57;;;29.00;99.90;;;;;;5069573;28;20181;-50
2023/06/11 09:32:01;;;;;;;4.97;4.38;;;29.10;99.90;;;;;;5069671;28;20261;-49
2023/06/11 09:34:26;;;;;;;5.35;4.90;;;28.80;99.90;;;;;;5069039;28;20173;-49
2023/06/11 09:36:53;;;;;;;5.28;4.78;;;29.00;99.90;;;;;;5069488;28;20162;-49
2023/06/11 09:39:19;;;;;;;4.97;4.53;;;29.30;99.90;;;;;;5051118;28;20233;-49
2023/06/11 09:41:51;;;;;;;5.88;5.28;;;29.40;99.90;;;;;;5069133;28;20197;-49
2023/06/11 09:44:21;;;;;;;6.75;5.50;;;29.30;99.90;;;;;;5069443;28;20172;-49
2023/06/11 09:46:47;;;;;;;5.95;4.65;;;29.40;99.90;;;;;;5069130;28;20767;-49
2023/06/11 09:49:14;;;;;;;5.78;4.53;;;29.20;99.90;;;;;;5069035;28;20219;-48
2023/06/11 09:51:40;;;;;;;5.25;4.70;;;;;;;;;;5051276;28;20617;-48
2023/06/11 09:54:10;;;;;;;4.93;4.53;;;29.50;99.10;;;;;;5069784;28;20604;-49
2023/06/11 09:56:37;;;;;;;11.80;5.10;;;29.40;99.90;;;;;;5069090;28;20252;-49
2023/06/11 09:59:03;;;;;;;6.72;4.43;;;29.30;98.60;;;;;;5068634;28;20262;-50
2023/06/11 10:01:30;;;;;;;5.20;4.70;;;29.70;97.20;;;;;;5069119;28;20475;-49
2023/06/11 10:03:59;;;;;;;5.10;4.70;;;29.20;97.10;;;;;;5069112;28;20170;-49
2023/06/11 10:06:32;;;;;;;5.00;4.53;;;29.70;97.00;;;;;;5073252;28;20184;-49
2023/06/11 10:09:00;;;;;;;7.38;4.53;;;30.00;97.00;;;;;;5072849;28;20311;-48
2023/06/11 10:11:29;;;;;;;5.80;4.93;;;29.80;96.00;;;;;;5073295;28;20169;-49
2023/06/11 10:13:59;;;;;;;5.60;4.75;;;30.20;96.10;;;;;;5073290;28;20173;-49
2023/06/11 10:16:25;;;;;;;7.25;4.60;;;30.00;95.70;;;;;;5072898;28;20633;-48
2023/06/11 10:18:52;;;;;;;4.93;4.50;;;;;;;;;;5072805;28;20227;-48
2023/06/11 10:21:18;;;;;;;8.05;4.78;;;;;;;;;;5072745;28;20178;-48
2023/06/11 10:23:51;;;;;;;5.40;4.68;;;29.90;95.30;;;;;;5072536;28;20162;-48
2023/06/11 10:26:16;;;;;;;5.07;4.45;;;30.10;94.60;;;;;;5084213;28;20258;-48
2023/06/11 10:28:48;;;;;;;7.88;4.68;;;30.20;93.50;;;;;;5092969;28;20604;-48
2023/06/11 10:31:35;;;;;;;4.90;4.50;;;29.60;92.70;;;;;;5092755;28;20524;-48
2023/06/11 10:34:02;;;;;;;7.30;4.63;;;29.60;92.60;;;;;;5091688;28;20206;-48
2023/06/11 10:36:37;;;;;;;4.78;4.38;;;30.00;92.70;;;;;;5092560;28;20161;-48
2023/06/11 10:39:05;;;;;;;8.05;4.82;;;29.90;91.20;;;;;;5091658;28;20318;-49
2023/06/11 10:41:30;;;;;;;6.10;4.63;;;29.80;91.10;;;;;;5092477;28;20168;-49
2023/06/11 10:43:57;;;;;;;6.78;4.50;;;30.20;91.60;;;;;;5092413;28;20172;-50
2023/06/11 10:46:24;;;;;;;5.03;4.38;;;30.30;90.60;;;;;;5092465;28;20245;-50
2023/06/11 10:48:51;;;;;;;5.20;4.75;;;30.40;91.00;;;;;;5092067;28;20181;-49
2023/06/11 10:51:17;;;;;;;4.78;4.22;;;30.60;90.70;;;;;;5092717;28;20160;-50
2023/06/11 10:53:43;;;;;;;5.47;4.30;;;30.50;89.80;;;;;;5091808;28;20161;-49
2023/06/11 10:56:12;;;;;;;6.93;4.63;;;30.60;90.30;;;;;;5092077;28;20173;-51
2023/06/11 10:58:39;;;;;;;4.68;4.15;;;30.50;86.00;;;;;;5074070;28;20177;-49
2023/06/11 11:01:08;;;;;;;4.45;4.05;;;30.70;87.20;;;;;;5074382;28;20189;-49
2023/06/11 11:03:35;;;;;;;5.32;4.20;;;31.00;88.40;;;;;;5092455;28;20192;-49
2023/06/11 11:06:01;;;;;;;4.70;4.30;;;30.80;87.50;;;;;;5091938;28;20177;-50
2023/06/11 11:08:28;;;;;;;5.22;4.72;;;30.80;85.40;;;;;;5091282;28;20295;-49
2023/06/11 11:11:01;;;;;;;6.13;4.40;;;30.90;81.50;;;;;;5091702;28;20226;-48
2023/06/11 11:13:31;;;;;;;5.55;4.45;;;31.00;84.20;;;;;;5092247;28;20196;-48
2023/06/11 11:16:00;;;;;;;6.22;4.38;;;;;;;;;;5091231;28;20197;-48
2023/06/11 11:18:26;;;;;;;5.07;4.65;;;31.10;83.10;;;;;;5091765;28;20172;-49
2023/06/11 11:20:56;;;;;;;6.35;4.40;;;30.90;82.40;;;;;;5091825;28;20205;-49
2023/06/11 11:23:24;;;;;;;6.90;4.15;;;31.10;81.70;;;;;;5092006;28;20587;-49
2023/06/11 11:25:51;;;;;;;6.28;4.78;;;31.20;84.10;;;;;;5091836;28;20208;-49
2023/06/11 11:28:17;;;;;;;5.20;4.70;;;31.40;82.40;;;;;;5092062;28;20546;-49
2023/06/11 11:30:43;;;;;;;5.72;4.72;;;;;;;;;;5091573;28;20172;-48
2023/06/11 11:33:09;;;;;;;7.15;4.95;;;;;;;;;;5091593;28;20223;-50
2023/06/11 11:35:48;;;;;;;5.22;4.72;;;31.10;81.30;;;;;;5092365;28;20176;-49
2023/06/11 11:38:14;;;;;;;6.28;5.00;;;31.40;81.50;;;;;;5091587;28;20185;-49
2023/06/11 11:40:39;;;;;;;5.78;4.75;;;31.20;80.00;;;;;;5091804;28;20219;-50
2023/06/11 11:43:05;;;;;;;6.22;4.93;;;;;;;;;;5092006;28;20163;-49
2023/06/11 11:45:33;;;;;;;7.10;4.93;;;31.40;81.80;;;;;;5091722;28;20165;-49
2023/06/11 11:47:59;;;;;;;6.32;5.10;;;31.40;80.20;;;;;;5091453;28;20157;-49
2023/06/11 11:50:27;;;;;;;7.43;5.05;;;31.40;79.80;;;;;;5091435;28;20171;-49
2023/06/11 11:53:06;;;;;;;7.60;6.28;;;31.30;79.60;;;;;;5091525;28;20212;-49
2023/06/11 11:55:39;;;;;;;6.88;4.55;;;31.40;77.30;;;;;;5090882;28;20164;-49
2023/06/11 11:58:06;;;;;;;6.03;5.10;;;31.20;75.10;;;;;;5091741;28;20325;-48
2023/06/11 12:00:34;;;;;;;7.15;4.78;;;31.50;74.60;;;;;;5090560;28;20615;-49
2023/06/11 12:03:09;;;;;;;6.78;5.20;;;31.60;77.90;;;;;;5090923;28;20878;-49
2023/06/11 12:05:38;;;;;;;6.97;5.55;;;32.00;78.30;;;;;;5091408;28;20160;-49
2023/06/11 12:08:05;;;;;;;8.18;5.53;;;32.00;76.80;;;;;;5091089;28;20236;-49
2023/06/11 12:10:32;;;;;;;7.82;5.72;;;;;;;;;;5090744;28;20206;-49
2023/06/11 12:12:59;;;;;;;5.68;4.75;;;31.90;75.10;;;;;;5090746;28;20255;-50
2023/06/11 12:15:25;;;;;;;5.47;4.78;;;;;;;;;;5090434;28;20219;-50
2023/06/11 12:17:51;;;;;;;6.55;4.80;;;31.80;75.20;;;;;;5090603;28;20297;-47
2023/06/11 12:20:17;;;;;;;6.90;5.53;;;31.60;74.80;;;;;;5090741;28;20274;-49
2023/06/11 12:22:43;;;;;;;7.70;5.53;;;;;;;;;;5090591;28;20576;-50
2023/06/11 12:25:09;;;;;;;5.90;5.32;;;;;;;;;;5090767;28;20693;-49
2023/06/11 12:27:37;;;;;;;7.72;4.97;;;32.10;77.00;;;;;;5090479;28;20172;-49
2023/06/11 12:30:03;;;;;;;7.60;5.85;;;32.00;76.10;;;;;;5090115;28;20253;-50
2023/06/11 12:32:32;;;;;;;8.55;5.22;;;31.90;74.90;;;;;;5090341;28;20264;-50
2023/06/11 12:34:57;;;;;;;5.50;5.00;;;31.80;73.70;;;;;;5090418;28;20168;-50
2023/06/11 12:37:24;;;;;;;5.85;5.35;;;31.80;73.10;;;;;;5090467;28;20172;-51
2023/06/11 12:39:50;;;;;;;6.05;4.93;;;;;;;;;;5090140;28;20249;-50
2023/06/11 12:42:19;;;;;;;6.43;5.10;;;32.00;72.80;;;;;;5090200;28;20168;-50
2023/06/11 12:44:46;;;;;;;8.18;6.53;;;32.10;73.60;;;;;;5072126;28;20513;-50
2023/06/11 12:47:12;;;;;;;9.80;5.25;;;32.10;73.60;;;;;;5090216;28;20222;-49
2023/06/11 12:49:38;;;;;;;8.18;5.68;;;32.20;74.10;;;;;;5090406;28;20173;-49
2023/06/11 12:52:04;;;;;;;6.38;5.43;;;32.20;73.60;;;;;;5090334;28;20624;-49
2023/06/11 12:54:30;;;;;;;6.63;5.22;;;32.10;72.20;;;;;;5090277;28;20211;-49
2023/06/11 12:56:55;;;;;;;6.95;5.13;;;32.10;71.70;;;;;;5089649;28;20625;-49